Time;durP1;ratioP1;P1;durP2;ratioP2;P2;SDS_P1;SDS_P2;PMS_P1;PMS_P2;Temp;Humidity;BMP_temperature;BMP_pressure;BME280_temperature;BME280_humidity;BME280_pressure;Samples;Min_cycle;Max_cycle;Signal;HPM_P1;HPM_P2
2022/06/13 00:00:54;;;;;;;7.43;3.53;;;;;;;13.03;98.04;101971.28;5029741;28;20044;-80
2022/06/13 00:03:20;;;;;;;9.57;3.20;;;;;;;13.04;98.97;101972.19;5035351;28;20044;-80
2022/06/13 00:05:45;;;;;;;7.88;3.17;;;;;;;13.05;100.00;101968.59;5034567;28;20053;-80
2022/06/13 00:08:11;;;;;;;8.35;3.72;;;;;;;13.06;99.40;101974.78;5037324;28;20065;-80
2022/06/13 00:10:36;;;;;;;8.65;3.40;;;;;;;13.06;99.37;101966.81;5040730;28;20036;-81
2022/06/13 00:13:03;;;;;;;8.48;3.42;;;;;;;13.07;100.00;101963.22;5038590;28;20040;-80
2022/06/13 00:15:29;;;;;;;8.75;3.63;;;;;;;13.06;100.00;101959.69;5041647;28;20040;-80
2022/06/13 00:17:54;;;;;;;8.80;3.67;;;;;;;13.08;100.00;101968.44;5038124;28;20048;-80
2022/06/13 00:20:20;;;;;;;11.00;4.05;;;;;;;13.08;100.00;101963.13;5037459;28;20056;-80
2022/06/13 00:22:45;;;;;;;7.80;4.10;;;;;;;13.09;100.00;101956.03;5036400;28;20029;-80
2022/06/13 00:25:11;;;;;;;6.72;3.83;;;;;;;13.11;100.00;101962.16;5049959;28;20061;-80
2022/06/13 00:27:39;;;;;;;9.30;4.80;;;;;;;13.12;100.00;101962.09;5048520;28;20113;-81
2022/06/13 00:30:09;;;;;;;9.13;3.85;;;;;;;13.12;100.00;101954.13;5038739;28;21449;-82
2022/06/13 00:32:35;;;;;;;11.02;4.45;;;;;;;13.14;100.00;101962.91;5045357;28;20038;-80
2022/06/13 00:35:01;;;;;;;10.13;3.88;;;;;;;13.14;100.00;101965.56;5039436;28;20042;-80
2022/06/13 00:37:28;;;;;;;7.55;4.00;;;;;;;13.14;100.00;101962.91;5049141;28;20040;-82
2022/06/13 00:39:53;;;;;;;8.40;3.88;;;;;;;13.14;100.00;101960.25;5038691;28;20541;-80
2022/06/13 00:42:21;;;;;;;11.93;4.47;;;;;;;13.13;100.00;101960.34;5024829;28;20036;-80
2022/06/13 00:45:08;;;;;;;9.07;4.10;;;;;;;13.14;100.00;101962.06;5039019;28;20517;-80
2022/06/13 00:47:36;;;;;;;9.75;4.22;;;;;;;13.12;100.00;101954.13;5047871;28;20064;-80
2022/06/13 00:50:05;;;;;;;6.00;3.67;;;;;;;13.13;100.00;101957.66;5034179;28;20072;-79
2022/06/13 00:53:02;;;;;;;9.02;3.85;;;;;;;13.12;100.00;101951.47;5046529;28;20181;-81
2022/06/13 00:55:36;;;;;;;10.38;3.97;;;;;;;13.13;100.00;101960.34;5041763;28;20479;-81
2022/06/13 00:58:03;;;;;;;11.18;3.78;;;;;;;13.12;100.00;101959.44;5037494;28;20079;-80
2022/06/13 01:00:29;;;;;;;7.03;3.50;;;;;;;13.13;100.00;101953.19;5038155;28;20024;-81
2022/06/13 01:02:55;;;;;;;7.90;3.90;;;;;;;13.12;100.00;101950.59;5038784;28;20041;-82
2022/06/13 01:05:24;;;;;;;10.45;3.97;;;;;;;13.12;100.00;101956.78;5045096;28;20099;-82
2022/06/13 01:07:51;;;;;;;9.70;3.92;;;;;;;13.13;100.00;101947.88;5040256;28;20038;-80
2022/06/13 01:13:03;;;;;;;9.80;3.88;;;;;;;13.13;100.00;101941.72;5049751;28;20458;-81
2022/06/13 01:15:47;;;;;;;8.02;4.00;;;;;;;13.12;99.59;101931.97;5037805;28;20095;-81
2022/06/13 01:18:31;;;;;;;5.65;3.60;;;;;;;13.09;99.96;101933.00;5035392;28;20569;-81
2022/06/13 01:21:12;;;;;;;9.77;3.15;;;;;;;13.07;99.26;101929.50;5038872;28;20045;-81
2022/06/13 01:24:03;;;;;;;10.43;3.13;;;;;;;13.06;98.85;101935.75;5038468;28;20037;-80
2022/06/13 01:26:38;;;;;;;9.32;3.65;;;;;;;13.04;98.13;101929.66;5050630;28;20132;-83
2022/06/13 01:29:28;;;;;;;6.97;3.30;;;;;;;13.04;98.26;101942.94;5036994;28;20033;-82
2022/06/13 01:31:56;;;;;;;8.48;3.40;;;;;;;13.03;97.58;101943.88;5038123;28;20033;-81
2022/06/13 01:34:41;;;;;;;7.10;2.97;;;;;;;13.03;96.91;101941.22;5051205;28;20102;-81
2022/06/13 01:37:45;;;;;;;5.75;3.30;;;;;;;13.01;97.06;101949.22;5039061;28;20638;-82
2022/06/13 01:40:23;;;;;;;5.28;2.88;;;;;;;13.00;96.17;101943.97;5039392;28;20045;-80
2022/06/13 01:43:09;;;;;;;9.90;3.00;;;;;;;12.98;95.48;101938.72;5036437;28;20822;-81
2022/06/13 01:45:53;;;;;;;5.88;2.78;;;;;;;12.97;94.71;101946.75;5046944;28;20035;-82
2022/06/13 01:48:51;;;;;;;5.60;2.47;;;;;;;12.97;94.01;101952.06;5039430;28;20680;-83
2022/06/13 01:51:27;;;;;;;3.15;2.17;;;;;;;12.96;93.49;101940.56;5016281;28;20049;-81
2022/06/13 01:54:00;;;;;;;4.03;1.90;;;;;;;12.97;92.75;101938.78;5040765;28;20403;-81
2022/06/13 01:56:51;;;;;;;2.70;1.88;;;;;;;12.96;91.35;101937.06;5016934;28;20022;-83
2022/06/13 01:59:39;;;;;;;5.90;1.98;;;;;;;12.95;90.55;101924.66;5020102;28;20032;-81
2022/06/13 02:02:14;;;;;;;4.40;1.83;;;;;;;12.93;88.75;101922.09;5027053;28;20040;-83
2022/06/13 02:04:50;;;;;;;3.83;1.75;;;;;;;12.93;88.90;101926.53;5041729;28;20052;-81
2022/06/13 02:07:19;;;;;;;4.63;1.80;;;;;;;12.91;88.64;101931.88;5033738;28;20072;-81
2022/06/13 02:09:52;;;;;;;4.22;1.50;;;;;;;12.90;88.40;101928.38;5052578;28;20436;-81
2022/06/13 02:12:18;;;;;;;4.38;1.67;;;;;;;12.92;88.10;101940.75;5040863;28;20036;-80
2022/06/13 02:14:52;;;;;;;2.83;1.50;;;;;;;12.89;87.48;101931.09;5063076;28;20067;-81
2022/06/13 02:17:20;;;;;;;5.03;1.40;;;;;;;12.89;87.08;101926.66;5059167;28;20055;-81
2022/06/13 02:19:47;;;;;;;6.78;1.40;;;;;;;12.88;87.38;101924.91;5039208;28;20171;-81
2022/06/13 02:23:02;;;;;;;3.78;1.80;;;;;;;12.88;86.86;101924.91;5050412;28;20067;-81
2022/06/13 02:25:37;;;;;;;1.88;1.50;;;;;;;12.87;86.30;101920.50;5034466;28;20069;-81
2022/06/13 02:28:11;;;;;;;3.38;2.25;;;;;;;12.87;86.29;101925.81;5008874;28;20028;-82
2022/06/13 02:30:40;;;;;;;4.25;1.60;;;;;;;12.88;86.05;101929.34;5040830;28;20147;-81
2022/06/13 02:33:13;;;;;;;3.75;1.50;;;;;;;12.87;86.00;101925.81;5040681;28;20083;-81
2022/06/13 02:35:39;;;;;;;;;;;;;;;12.88;85.55;101929.34;5052685;28;20160;-81
2022/06/13 02:38:11;;;;;;;3.65;1.55;;;;;;;12.89;85.89;101931.09;5032449;28;19921;-81
2022/06/13 02:40:45;;;;;;;3.47;1.38;;;;;;;12.89;85.93;101925.78;5037896;28;20045;-81
2022/06/13 02:43:26;;;;;;;4.45;1.65;;;;;;;12.89;85.85;101931.97;5032955;28;20094;-80
2022/06/13 02:45:55;;;;;;;3.72;1.75;;;;;;;12.90;85.88;101928.38;5046009;28;20044;-81
2022/06/13 02:48:33;;;;;;;3.65;1.65;;;;;;;12.92;86.09;101938.97;5036978;28;20043;-81
2022/06/13 02:51:24;;;;;;;4.10;1.42;;;;;;;12.93;86.39;101938.03;5036223;28;20031;-81
2022/06/13 02:53:59;;;;;;;3.38;1.80;;;;;;;12.94;86.32;101928.25;5036219;28;20021;-80
2022/06/13 02:56:28;;;;;;;3.15;1.50;;;;;;;12.95;86.29;101928.19;5039835;28;20472;-84
2022/06/13 02:59:16;;;;;;;4.50;1.45;;;;;;;12.96;86.43;101929.06;5033487;28;20091;-81
2022/06/13 03:01:44;;;;;;;3.08;1.50;;;;;;;12.97;86.02;101931.66;5041336;28;20547;-81
2022/06/13 03:04:38;;;;;;;4.13;1.50;;;;;;;12.98;85.67;101925.44;5023180;28;20036;-80
2022/06/13 03:07:14;;;;;;;3.80;1.60;;;;;;;12.99;85.57;101924.50;5038076;28;20055;-80
2022/06/13 03:09:48;;;;;;;2.60;1.65;;;;;;;13.00;85.84;101922.69;5040902;28;20035;-81
2022/06/13 03:12:24;;;;;;;6.07;1.50;;;;;;;13.00;85.73;101928.00;5045914;28;20033;-81
2022/06/13 03:14:57;;;;;;;1.83;1.30;;;;;;;12.99;85.94;101931.59;5018906;28;20045;-80
2022/06/13 03:17:41;;;;;;;3.40;1.40;;;;;;;12.97;85.98;101933.47;5042073;28;20037;-81
2022/06/13 03:20:08;;;;;;;3.50;1.63;;;;;;;12.95;85.87;101927.31;5042222;28;20103;-80
2022/06/13 03:22:45;;;;;;;2.33;1.40;;;;;;;12.92;86.41;101927.44;5041890;28;20033;-81
2022/06/13 03:25:40;;;;;;;1.67;1.27;;;;;;;12.90;86.47;101933.69;5043086;28;21453;-81
2022/06/13 03:28:15;;;;;;;3.92;1.55;;;;;;;12.87;86.32;101927.63;5022972;28;20080;-83
2022/06/13 03:31:03;;;;;;;3.05;1.13;;;;;;;12.83;87.02;101937.50;5025058;28;20068;-80
2022/06/13 03:33:40;;;;;;;6.22;1.15;;;;;;;12.83;86.89;101929.53;5017735;28;20041;-80
2022/06/13 03:36:17;;;;;;;2.97;1.30;;;;;;;12.82;87.02;101930.47;5042261;28;20033;-80
2022/06/13 03:38:49;;;;;;;2.72;1.30;;;;;;;12.81;87.58;101938.50;5040056;28;20134;-80
2022/06/13 03:41:16;;;;;;;5.30;1.35;;;;;;;12.80;87.42;101937.59;5041878;28;20632;-80
2022/06/13 03:44:05;;;;;;;3.63;1.30;;;;;;;12.78;87.29;101936.81;5041971;28;20120;-80
2022/06/13 03:46:52;;;;;;;4.82;1.38;;;;;;;12.77;88.13;101940.41;5039713;28;20049;-81
2022/06/13 03:49:23;;;;;;;4.88;1.48;;;;;;;12.76;88.32;101938.66;5040495;28;20032;-81
2022/06/13 03:51:53;;;;;;;3.30;1.35;;;;;;;12.76;88.01;101936.00;5041880;28;20434;-81
2022/06/13 03:54:54;;;;;;;2.72;1.02;;;;;;;12.75;88.80;101947.56;5040576;28;20040;-81
2022/06/13 03:57:28;;;;;;;2.42;1.13;;;;;;;12.73;88.46;101941.41;5025183;28;20124;-81
2022/06/13 03:59:57;;;;;;;5.10;1.33;;;;;;;12.71;88.26;101943.28;5050463;28;20112;-81
2022/06/13 04:02:31;;;;;;;3.47;1.40;;;;;;;12.70;88.33;101944.19;5040116;28;20087;-80
2022/06/13 04:04:57;;;;;;;3.10;1.15;;;;;;;12.68;88.90;101943.41;5002187;28;20119;-81
2022/06/13 04:07:26;;;;;;;4.85;1.60;;;;;;;12.66;88.58;101943.44;5041161;28;20222;-81
2022/06/13 04:10:00;;;;;;;2.80;1.50;;;;;;;12.63;88.68;101947.09;5035807;28;21465;-80
2022/06/13 04:12:59;;;;;;;2.60;1.38;;;;;;;12.65;89.52;101943.50;5040247;28;20128;-80
2022/06/13 04:15:36;;;;;;;3.08;1.48;;;;;;;12.65;89.40;101949.69;5040306;28;20040;-80
2022/06/13 04:18:46;;;;;;;3.63;1.58;;;;;;;12.68;89.89;101951.38;5032107;28;20025;-80
2022/06/13 04:21:36;;;;;;;5.40;1.50;;;;;;;12.71;89.33;101953.91;5009099;28;20274;-80
2022/06/13 04:24:23;;;;;;;3.25;1.40;;;;;;;12.73;89.45;101960.03;5030356;28;20118;-83
2022/06/13 04:26:54;;;;;;;1.85;1.08;;;;;;;12.72;89.33;101956.50;5029864;28;20036;-81
2022/06/13 04:29:30;;;;;;;3.72;1.45;;;;;;;12.71;89.14;101965.41;5030573;28;20030;-81
2022/06/13 04:32:00;;;;;;;2.67;1.60;;;;;;;12.70;89.11;101963.66;5031516;28;20037;-81
2022/06/13 04:34:30;;;;;;;5.70;1.85;;;;;;;12.69;89.13;101963.72;5030940;28;20857;-80
2022/06/13 04:36:56;;;;;;;3.00;1.63;;;;;;;12.68;89.44;101968.16;5017690;28;20040;-81
2022/06/13 04:39:26;;;;;;;5.00;1.90;;;;;;;12.67;90.18;101963.78;5009459;28;20047;-80
2022/06/13 04:41:53;;;;;;;2.95;1.30;;;;;;;12.68;89.79;101965.50;5042328;28;20033;-80
2022/06/13 04:44:22;;;;;;;2.30;1.23;;;;;;;12.66;89.74;101964.72;4994636;28;20053;-79
2022/06/13 04:46:49;;;;;;;3.15;1.48;;;;;;;12.65;90.03;101962.97;5029187;28;20049;-81
2022/06/13 04:49:36;;;;;;;2.15;1.20;;;;;;;12.67;90.49;101962.91;5031456;28;20362;-80
2022/06/13 04:52:07;;;;;;;5.70;1.45;;;;;;;12.69;90.64;101969.03;5001222;28;20065;-80
2022/06/13 04:54:37;;;;;;;2.90;1.10;;;;;;;12.76;90.70;101967.91;5024730;28;20114;-80
2022/06/13 04:57:04;;;;;;;4.63;1.52;;;;;;;12.84;90.52;101971.13;5035247;28;20040;-81
2022/06/13 04:59:30;;;;;;;2.28;1.13;;;;;;;12.97;90.55;101968.03;5031521;28;20688;-80
2022/06/13 05:01:57;;;;;;;3.50;1.30;;;;;;;13.11;90.39;101964.81;5043120;28;20147;-80
2022/06/13 05:04:25;;;;;;;6.57;1.20;;;;;;;13.27;90.61;101976.63;5024589;28;20522;-80
2022/06/13 05:06:55;;;;;;;4.15;1.25;;;;;;;13.46;89.63;101965.28;5013344;28;20056;-80
2022/06/13 05:09:41;;;;;;;1.50;1.10;;;;;;;13.64;89.50;101970.78;5032066;28;20514;-80
2022/06/13 05:12:16;;;;;;;4.75;1.73;;;;;;;13.77;89.64;101968.50;5009354;28;20365;-80
2022/06/13 05:15:01;;;;;;;1.95;1.10;;;;;;;13.90;89.21;101967.03;5027706;28;20399;-81
2022/06/13 05:18:09;;;;;;;2.55;1.13;;;;;;;14.16;87.91;101965.06;5008354;28;20036;-79
2022/06/13 05:21:03;;;;;;;1.73;1.08;;;;;;;14.43;86.46;101970.13;5030151;28;20051;-81
2022/06/13 05:24:00;;;;;;;4.15;1.17;;;;;;;14.67;86.69;101978.84;5031688;28;20041;-80
2022/06/13 05:26:29;;;;;;;1.90;1.05;;;;;;;14.98;85.34;101981.09;5031388;28;20044;-79
2022/06/13 05:28:56;;;;;;;2.22;1.00;;;;;;;15.15;84.78;101975.81;5038611;28;20128;-80
2022/06/13 05:31:23;;;;;;;4.25;2.08;;;;;;;15.21;84.24;101986.22;5067686;28;20041;-81
2022/06/13 05:33:50;;;;;;;1.90;1.08;;;;;;;15.16;84.14;101974.03;5046313;28;20078;-80
2022/06/13 05:36:18;;;;;;;3.10;1.10;;;;;;;15.14;84.15;101983.91;5032341;28;20508;-80
2022/06/13 05:39:05;;;;;;;2.75;0.95;;;;;;;15.08;84.39;101987.72;5030353;28;20037;-80
2022/06/13 05:41:31;;;;;;;5.63;1.65;;;;;;;14.84;85.72;102000.38;5013295;28;20025;-80
2022/06/13 05:43:56;;;;;;;3.67;1.08;;;;;;;14.48;87.24;102009.91;5035375;28;20059;-84
2022/06/13 05:46:33;;;;;;;0.88;0.70;;;;;;;14.11;89.43;102010.53;5035441;28;20726;-81
2022/06/13 05:48:59;;;;;;;2.97;1.00;;;;;;;13.84;89.54;102008.09;5033030;28;20132;-85
2022/06/13 05:51:25;;;;;;;2.90;1.13;;;;;;;13.61;90.63;102018.81;5012704;28;20123;-83
2022/06/13 05:53:52;;;;;;;1.15;0.73;;;;;;;13.37;92.39;102022.34;5045316;28;20064;-84
2022/06/13 05:56:18;;;;;;;0.73;0.73;;;;;;;13.17;90.96;102028.41;5033374;28;20035;-83
2022/06/13 05:58:44;;;;;;;1.45;1.02;;;;;;;13.04;92.52;102030.66;5033210;28;20025;-82
2022/06/13 06:01:09;;;;;;;0.73;0.70;;;;;;;12.95;92.20;102033.63;5034294;28;20029;-81
2022/06/13 06:03:35;;;;;;;2.05;0.80;;;;;;;12.85;93.06;102027.81;5044260;28;20029;-81
2022/06/13 06:06:01;;;;;;;2.20;1.10;;;;;;;12.79;94.28;102036.84;5010091;28;20037;-81
2022/06/13 06:08:30;;;;;;;2.95;0.70;;;;;;;12.77;94.78;102028.09;5033570;28;20036;-81
2022/06/13 06:10:57;;;;;;;2.20;0.95;;;;;;;12.84;95.40;102034.91;5033996;28;20146;-80
2022/06/13 06:13:23;;;;;;;4.30;1.00;;;;;;;12.99;96.54;102027.28;5044027;28;20119;-80
2022/06/13 06:15:49;;;;;;;1.50;0.95;;;;;;;13.23;95.78;102019.34;5032560;28;20045;-79
2022/06/13 06:18:16;;;;;;;4.60;1.15;;;;;;;13.47;95.33;102032.63;5044359;28;20078;-79
2022/06/13 06:20:42;;;;;;;2.38;1.05;;;;;;;13.73;97.76;102028.94;5032314;28;20064;-79
2022/06/13 06:23:08;;;;;;;2.00;1.10;;;;;;;13.93;95.75;102028.16;5014941;28;20123;-79
2022/06/13 06:25:34;;;;;;;3.28;1.10;;;;;;;14.21;94.34;102029.66;5032357;28;20386;-79
2022/06/13 06:28:00;;;;;;;1.42;1.20;;;;;;;14.50;94.88;102030.22;5026575;28;20167;-79
2022/06/13 06:30:27;;;;;;;1.73;0.85;;;;;;;14.65;92.75;102027.81;5045528;28;20043;-81
2022/06/13 06:32:57;;;;;;;4.35;1.40;;;;;;;14.73;92.12;102032.81;5033618;28;22195;-82
2022/06/13 06:35:24;;;;;;;1.50;0.90;;;;;;;14.71;91.73;102040.88;5044027;28;20048;-79
2022/06/13 06:37:51;;;;;;;7.05;0.95;;;;;;;14.68;91.71;102043.69;5032930;28;20179;-79
2022/06/13 06:40:19;;;;;;;3.53;1.02;;;;;;;14.70;91.79;102041.81;5027024;28;20029;-80
2022/06/13 06:42:45;;;;;;;7.13;1.02;;;;;;;14.66;91.53;102050.88;5031829;28;20072;-79
2022/06/13 06:45:12;;;;;;;1.90;1.00;;;;;;;14.64;91.33;102044.75;5032734;28;20116;-78
2022/06/13 06:47:39;;;;;;;4.13;0.75;;;;;;;14.68;90.56;102043.69;5034270;28;20071;-79
2022/06/13 06:50:06;;;;;;;1.65;0.82;;;;;;;14.92;91.11;102040.88;5044396;28;20048;-78
2022/06/13 06:52:31;;;;;;;1.80;0.80;;;;;;;15.14;90.91;102039.94;5032930;28;20784;-78
2022/06/13 07:00:26;;;;;;;3.53;0.70;;;;;;;15.43;88.68;102041.22;5032256;28;20040;-78
2022/06/13 07:02:52;;;;;;;2.78;0.80;;;;;;;15.52;87.66;102055.94;5000531;28;20029;-79
2022/06/13 07:05:18;;;;;;;2.65;0.80;;;;;;;15.46;86.94;102056.22;5032738;28;20921;-80
2022/06/13 07:07:43;;;;;;;6.30;1.13;;;;;;;15.37;87.19;102051.31;5031774;28;20047;-78
2022/06/13 07:10:12;;;;;;;2.40;1.00;;;;;;;15.49;87.63;102064.09;5043556;28;20037;-78
2022/06/13 07:12:38;;;;;;;2.97;0.95;;;;;;;15.68;86.47;102055.22;5032173;28;21478;-85
2022/06/13 07:15:04;;;;;;;1.63;0.70;;;;;;;15.83;86.27;102066.94;5043183;28;20101;-78
2022/06/13 07:17:31;;;;;;;4.40;1.00;;;;;;;15.96;85.85;102068.13;5017628;28;20094;-78
2022/06/13 07:19:57;;;;;;;2.95;1.10;;;;;;;15.96;85.46;102064.59;5031623;28;20048;-78
2022/06/13 07:22:24;;;;;;;3.35;0.70;;;;;;;16.00;85.04;102068.84;5031224;28;20037;-84
2022/06/13 07:24:49;;;;;;;0.80;0.70;;;;;;;16.13;84.55;102063.78;5033577;28;20091;-78
2022/06/13 07:27:15;;;;;;;0.63;0.57;;;;;;;16.16;83.56;102076.97;5033549;28;20021;-77
2022/06/13 07:29:44;;;;;;;1.95;0.77;;;;;;;16.07;83.14;102066.75;5032673;28;20064;-78
2022/06/13 07:32:27;;;;;;;1.80;1.00;;;;;;;15.94;80.06;102077.16;5032174;28;20615;-79
2022/06/13 07:34:53;;;;;;;1.77;0.73;;;;;;;15.68;81.67;102080.09;5032768;28;20776;-79
2022/06/13 07:40:08;;;;;;;1.05;0.68;;;;;;;15.55;82.41;102082.50;5042645;28;20469;-77
2022/06/13 07:42:53;;;;;;;1.85;0.57;;;;;;;15.83;81.52;102081.19;5028040;28;20090;-88
2022/06/13 07:45:21;;;;;;;0.63;0.50;;;;;;;16.08;81.60;102085.34;4994083;28;20051;-85
2022/06/13 07:47:49;;;;;;;2.55;0.70;;;;;;;16.32;80.89;102081.53;5004102;28;20694;-91
2022/06/13 07:50:16;;;;;;;2.97;0.80;;;;;;;16.38;79.79;102094.59;5022730;28;20510;-84
2022/06/13 07:52:42;;;;;;;0.77;0.65;;;;;;;16.43;79.52;102097.91;5022006;28;20787;-85
2022/06/13 07:55:08;;;;;;;3.35;0.93;;;;;;;16.38;78.51;102091.91;5028834;28;20037;-83
2022/06/13 07:57:33;;;;;;;1.23;0.70;;;;;;;16.56;79.29;102096.31;5031549;28;20130;-85
2022/06/13 08:00:00;;;;;;;1.98;0.63;;;;;;;16.71;78.84;102096.47;5018419;28;20467;-81
2022/06/13 08:02:29;;;;;;;4.45;1.17;;;;;;;16.66;78.38;102107.41;5031263;28;20049;-83
2022/06/13 08:04:55;;;;;;;3.78;0.75;;;;;;;16.41;76.26;102116.66;5030051;28;20056;-82
2022/06/13 08:07:21;;;;;;;3.53;0.93;;;;;;;16.34;77.95;102112.56;5032809;28;20033;-85
2022/06/13 08:09:47;;;;;;;1.90;0.73;;;;;;;16.54;78.76;102108.03;5018091;28;20452;-85
2022/06/13 08:12:13;;;;;;;0.85;0.60;;;;;;;16.74;78.45;102114.19;5010894;28;20152;-85
2022/06/13 08:14:45;;;;;;;2.60;0.70;;;;;;;16.81;77.71;102116.47;4999060;28;20040;-85
2022/06/13 08:17:12;;;;;;;3.20;0.90;;;;;;;16.68;77.37;102115.38;5028462;28;20468;-86
2022/06/13 08:19:37;;;;;;;5.00;0.90;;;;;;;16.66;77.89;102123.47;5023739;28;20037;-84
2022/06/13 08:22:03;;;;;;;0.98;0.52;;;;;;;16.80;75.53;102122.75;5030483;28;20081;-83
2022/06/13 08:24:28;;;;;;;4.00;1.15;;;;;;;16.92;75.26;102120.38;5032379;28;20032;-82
2022/06/13 08:26:54;;;;;;;2.42;0.85;;;;;;;16.90;74.65;102128.50;5028268;28;20059;-82
2022/06/13 08:29:19;;;;;;;2.50;0.57;;;;;;;16.86;74.37;102134.94;5046218;28;20036;-84
2022/06/13 08:31:46;;;;;;;3.25;0.65;;;;;;;16.79;74.12;102128.19;5026043;28;20419;-84
2022/06/13 08:34:11;;;;;;;3.22;0.80;;;;;;;16.74;74.51;102130.22;5043065;28;20779;-83
2022/06/13 08:36:37;;;;;;;2.05;0.65;;;;;;;16.75;74.20;102137.28;5046519;28;20505;-82
2022/06/13 08:39:03;;;;;;;1.65;0.70;;;;;;;16.89;73.73;102137.44;5029125;28;20037;-82
2022/06/13 08:41:38;;;;;;;4.82;0.77;;;;;;;17.05;71.08;102139.38;5030350;28;20106;-83
2022/06/13 08:44:18;;;;;;;3.30;0.85;;;;;;;16.92;72.24;102144.44;5045677;28;20021;-79
2022/06/13 08:46:55;;;;;;;4.00;0.90;;;;;;;16.85;73.07;102149.25;5042287;28;20044;-78
2022/06/13 08:49:41;;;;;;;3.75;0.93;;;;;;;17.01;72.55;102157.38;5033143;28;20124;-80
2022/06/13 08:52:21;;;;;;;2.05;0.55;;;;;;;17.22;71.69;102150.03;5030208;28;20090;-79
2022/06/13 08:54:53;;;;;;;2.53;0.85;;;;;;;17.38;71.31;102155.44;5028088;28;20063;-77
2022/06/13 08:57:20;;;;;;;1.37;0.60;;;;;;;17.44;72.29;102156.91;5023957;28;20120;-80
2022/06/13 08:59:49;;;;;;;1.25;0.60;;;;;;;17.56;71.82;102155.41;5023642;28;20326;-79
2022/06/13 09:02:25;;;;;;;1.35;0.63;;;;;;;17.73;71.72;102162.50;5039480;28;20029;-80
2022/06/13 09:05:14;;;;;;;1.92;0.68;;;;;;;17.94;69.57;102170.31;5030698;28;20403;-78
2022/06/13 09:07:49;;;;;;;1.50;0.70;;;;;;;18.04;71.16;102165.28;5024751;28;20090;-78
2022/06/13 09:10:20;;;;;;;3.17;0.70;;;;;;;18.19;71.91;102166.25;5030592;28;20436;-77
2022/06/13 09:13:17;;;;;;;2.47;0.90;;;;;;;18.19;70.09;102171.59;5013939;28;20037;-79
2022/06/13 09:15:54;;;;;;;2.95;0.75;;;;;;;17.85;69.41;102168.13;5041050;28;20064;-78
2022/06/13 09:18:25;;;;;;;2.80;0.82;;;;;;;17.56;70.20;102179.50;5041150;28;20129;-79
2022/06/13 09:21:02;;;;;;;3.55;1.10;;;;;;;17.51;71.01;102185.09;5024790;28;20029;-81
2022/06/13 09:23:43;;;;;;;1.75;0.70;;;;;;;17.47;69.57;102182.66;5022580;28;20121;-79
2022/06/13 09:26:31;;;;;;;5.47;0.80;;;;;;;17.33;71.04;102186.06;5025116;28;20173;-79
2022/06/13 09:29:14;;;;;;;4.05;0.85;;;;;;;17.07;69.63;102191.84;5023596;28;20480;-79
2022/06/13 09:31:44;;;;;;;;;;;;;;;16.97;69.20;102190.56;5014167;28;20470;-78
2022/06/13 09:34:29;;;;;;;2.50;0.68;;;;;;;17.15;69.19;102182.56;5004434;28;19916;-79
2022/06/13 09:37:10;;;;;;;2.92;1.08;;;;;;;17.43;67.63;102183.78;5026475;28;20045;-79
2022/06/13 09:39:36;;;;;;;3.53;0.95;;;;;;;17.73;67.93;102188.41;5029991;28;20044;-82
2022/06/13 09:42:54;;;;;;;1.95;1.02;;;;;;;18.07;66.53;102191.09;5024129;28;20029;-78
2022/06/13 09:45:40;;;;;;;5.15;1.00;;;;;;;18.00;65.73;102199.44;4987310;28;20053;-79
2022/06/13 09:48:17;;;;;;;2.88;0.70;;;;;;;17.64;66.43;102211.19;5028094;28;20033;-79
2022/06/13 09:51:13;;;;;;;1.38;0.65;;;;;;;17.22;68.78;102211.56;5039139;28;20048;-83
2022/06/13 09:53:43;;;;;;;5.88;0.90;;;;;;;16.76;70.65;102212.09;5005510;28;20087;-78
2022/06/13 09:56:17;;;;;;;2.33;0.90;;;;;;;16.45;72.19;102216.28;5014623;28;20024;-79
2022/06/13 09:58:54;;;;;;;3.88;0.80;;;;;;;16.24;73.01;102219.03;5042079;28;20171;-78
2022/06/13 10:01:47;;;;;;;3.70;0.90;;;;;;;16.25;74.38;102220.78;5029683;28;20116;-82
2022/06/13 10:04:16;;;;;;;1.45;0.80;;;;;;;16.49;73.23;102217.88;5025826;28;20107;-90
2022/06/13 10:06:45;;;;;;;1.90;0.63;;;;;;;16.78;72.11;102217.38;5025879;28;20040;-78
2022/06/13 10:09:43;;;;;;;2.10;0.70;;;;;;;17.02;70.32;102226.00;5029923;28;20577;-79
2022/06/13 10:12:16;;;;;;;2.50;0.90;;;;;;;17.23;70.08;102233.88;5040544;28;20075;-80
2022/06/13 10:15:00;;;;;;;;;;;;;;;17.45;69.77;102222.91;5038488;28;20049;-80
2022/06/13 10:17:52;;;;;;;3.85;0.95;;;;;;;17.42;67.56;102233.75;5044411;28;20029;-78
2022/06/13 10:20:43;;;;;;;3.50;1.00;;;;;;;17.12;67.58;102228.19;5009144;28;20705;-80
2022/06/13 10:23:14;;;;;;;1.50;0.80;;;;;;;17.01;67.91;102220.69;5030723;28;20037;-82
2022/06/13 10:26:08;;;;;;;2.22;0.82;;;;;;;17.29;67.06;102232.66;5027913;28;20033;-82
2022/06/13 10:29:00;;;;;;;3.78;1.08;;;;;;;17.43;67.95;102227.47;5033554;28;20041;-81
2022/06/13 10:31:59;;;;;;;3.30;0.75;;;;;;;17.57;66.80;102232.09;5027738;28;20041;-78
2022/06/13 10:34:50;;;;;;;1.52;0.57;;;;;;;17.72;65.23;102230.41;5026736;28;20209;-76
2022/06/13 10:37:53;;;;;;;3.85;0.90;;;;;;;17.71;66.13;102242.03;5025737;28;20041;-79
2022/06/13 10:40:18;;;;;;;3.90;1.00;;;;;;;17.70;67.32;102232.28;5041835;28;20048;-82
2022/06/13 10:42:45;;;;;;;1.48;0.68;;;;;;;17.86;66.98;102234.16;4995137;28;20586;-82
2022/06/13 10:45:13;;;;;;;2.47;0.77;;;;;;;18.09;66.96;102240.94;5002908;28;20024;-82
2022/06/13 10:47:56;;;;;;;3.95;1.00;;;;;;;18.32;66.44;102238.81;4998549;28;20037;-81
2022/06/13 10:50:29;;;;;;;3.40;1.00;;;;;;;18.47;63.89;102245.13;5033024;28;20530;-84
2022/06/13 10:52:59;;;;;;;2.63;0.90;;;;;;;18.37;64.21;102247.47;5028107;28;20036;-84
2022/06/13 10:55:26;;;;;;;2.15;0.80;;;;;;;18.22;65.32;102243.81;5027313;28;20575;-80
2022/06/13 10:58:00;;;;;;;3.83;0.90;;;;;;;18.29;64.76;102253.25;5033944;28;20114;-84
2022/06/13 11:00:30;;;;;;;2.05;0.77;;;;;;;18.26;64.42;102250.72;5032324;28;20063;-83
2022/06/13 11:03:14;;;;;;;3.25;0.90;;;;;;;18.35;63.16;102256.53;5046551;28;20032;-92
2022/06/13 11:06:01;;;;;;;5.55;1.20;;;;;;;18.44;64.51;102259.56;5037568;28;20555;-81
2022/06/13 11:08:27;;;;;;;2.70;1.00;;;;;;;18.51;63.96;102257.38;5040789;28;20495;-80
2022/06/13 11:11:13;;;;;;;1.27;0.80;;;;;;;18.59;64.28;102259.63;5028880;28;20384;-78
2022/06/13 11:13:40;;;;;;;2.42;0.63;;;;;;;18.61;64.14;102267.59;5025736;28;20567;-80
2022/06/13 11:22:38;;;;;;;4.55;0.70;;;;;;;18.41;61.60;102269.59;5033191;28;20572;-83
2022/06/13 11:25:23;;;;;;;2.10;0.70;;;;;;;18.37;63.87;102268.03;5033168;28;20029;-79
2022/06/13 11:28:08;;;;;;;1.23;0.70;;;;;;;18.44;62.94;102264.03;5034103;28;20135;-79
2022/06/13 11:30:42;;;;;;;2.95;0.80;;;;;;;18.43;63.73;102271.22;5032314;28;20052;-78
2022/06/13 11:33:11;;;;;;;3.58;0.82;;;;;;;18.36;62.97;102266.31;5031516;28;20029;-80
2022/06/13 11:35:36;;;;;;;3.45;0.80;;;;;;;18.14;64.74;102270.19;5032804;28;20036;-77
2022/06/13 11:38:24;;;;;;;2.65;0.90;;;;;;;18.00;63.84;102278.94;5033176;28;20044;-78
2022/06/13 11:41:13;;;;;;;4.05;0.93;;;;;;;17.98;64.88;102278.16;5031482;28;20029;-78
2022/06/13 11:43:56;;;;;;;2.47;1.05;;;;;;;17.89;64.26;102275.03;5012959;28;20507;-79
2022/06/13 11:46:28;;;;;;;2.45;0.73;;;;;;;17.65;65.00;102278.06;5043692;28;21469;-78
2022/06/13 11:48:55;;;;;;;3.97;0.93;;;;;;;17.58;65.50;102276.66;5033646;28;20123;-80
2022/06/13 11:51:25;;;;;;;1.90;0.70;;;;;;;17.60;65.13;102281.94;5033042;28;20126;-80
2022/06/13 11:53:52;;;;;;;4.88;1.15;;;;;;;17.42;64.61;102281.94;5028203;28;20056;-79
2022/06/13 11:56:25;;;;;;;3.15;0.70;;;;;;;17.31;64.87;102274.47;5048299;28;20033;-80
2022/06/13 11:58:52;;;;;;;1.60;0.90;;;;;;;17.39;65.14;102276.75;5055544;28;20033;-80
2022/06/13 12:01:36;;;;;;;2.22;0.93;;;;;;;17.50;65.00;102274.38;5014914;28;20087;-80
2022/06/13 12:04:11;;;;;;;5.55;1.10;;;;;;;17.48;65.29;102284.31;5025151;28;20118;-78
2022/06/13 12:06:42;;;;;;;2.45;1.00;;;;;;;17.32;66.19;102292.25;5032639;28;20049;-78
2022/06/13 12:09:21;;;;;;;1.52;0.70;;;;;;;17.49;66.28;102283.34;5042244;28;20040;-78
2022/06/13 12:11:53;;;;;;;4.47;0.95;;;;;;;17.81;65.17;102282.59;5030918;28;20107;-81
2022/06/13 12:14:19;;;;;;;3.70;0.90;;;;;;;17.98;65.78;102281.69;4998516;28;20086;-79